logo
Rechercher aéroport 
image banner adimage banner adimage banner ad
image banner ad

WMBF - Ulu Bernam

Situé à , Malaysia

ICAO - WMBF, IATA -

Données fournies par Airmate  

Information générale

Coordonnées: N3°44'59" E101°10'5"
Élévation : 10 feet MSL.
 
Voir autres Aéroports à Perak

Données opérationnelles

Special qualification required
Heure actuelle UTC:
Heure actuelle locale:
Météo à : WMBA - Sitiawan ( 73 km )
METAR: WMBA 090500Z VRB03KT 9999 SCT021 31/24 Q1008
Voir NOTAMs / SUP AIP / TFR affectant cet aéroport [VIEW]
Fréquences de communication: [VIEW]

Pistes:

Identifiant RWYQFULongueur (ft)Largeur (ft)SurfaceLDA (ft)
1700UNK
3500UNK

Coordonnées de l'aéroport

Adresse: Malaysia

Vue satellite de WMBF